Gainesville, New York
Current Conditions -  °F | °C
As of 10:54 AM on Saturday 22 Nov 2014 (Local Time) from KDSV Reporting Station
Overcast Overcast  
Wind Chill: 31°   Ceiling: 5500
Heat Index: 38°   Visibility: 10mi
Dew Point:   Wind: 10mph
Humidity: 29%   Direction: 130°SE
Pressure: 30.17"   Gusts: NA
Location:  42.64°N, 78.13°W
Report Text: KDSV 221554Z AUTO 13009KT 10SM SCT047 OVC055 03/M13 A3017 RMK AO2 SLP234 T00331133
Loading
Personal Weather Stations






























Interactive Weather Map New forecast layout! Learn more

10-Day Weather Forecast

Advertisements
Track Severe Weather on mobile